sensor_id;sensor_type;location;lat;lon;timestamp;P1;durP1;ratioP1;P2;durP2;ratioP2
32242;SDS011;18731;42.830;24.390;2023-02-15T04:00:35;42.95;;;22.00;;
32242;SDS011;18731;42.830;24.390;2023-02-15T04:03:30;37.95;;;20.05;;
32242;SDS011;18731;42.830;24.390;2023-02-15T04:06:01;54.63;;;26.17;;
32242;SDS011;18731;42.830;24.390;2023-02-15T04:08:27;39.20;;;20.13;;
32242;SDS011;18731;42.830;24.390;2023-02-15T04:11:12;34.95;;;18.20;;
32242;SDS011;18731;42.830;24.390;2023-02-15T04:13:38;36.08;;;18.60;;
32242;SDS011;18731;42.830;24.390;2023-02-15T04:16:04;39.25;;;18.77;;
32242;SDS011;18731;42.830;24.390;2023-02-15T04:21:15;38.38;;;19.45;;
32242;SDS011;18731;42.830;24.390;2023-02-15T04:23:59;30.10;;;15.93;;
32242;SDS011;18731;42.830;24.390;2023-02-15T04:26:43;32.22;;;16.13;;
32242;SDS011;18731;42.830;24.390;2023-02-15T04:29:08;42.03;;;21.20;;
32242;SDS011;18731;42.830;24.390;2023-02-15T04:31:34;41.40;;;21.17;;
32242;SDS011;18731;42.830;24.390;2023-02-15T04:33:59;41.70;;;22.63;;
32242;SDS011;18731;42.830;24.390;2023-02-15T04:36:25;44.53;;;23.50;;
32242;SDS011;18731;42.830;24.390;2023-02-15T04:38:51;36.20;;;18.95;;
32242;SDS011;18731;42.830;24.390;2023-02-15T04:41:16;35.97;;;18.95;;
32242;SDS011;18731;42.830;24.390;2023-02-15T04:43:42;31.00;;;16.90;;
32242;SDS011;18731;42.830;24.390;2023-02-15T04:46:07;30.88;;;17.73;;
32242;SDS011;18731;42.830;24.390;2023-02-15T04:48:33;29.85;;;16.95;;
32242;SDS011;18731;42.830;24.390;2023-02-15T04:50:58;41.67;;;20.35;;
32242;SDS011;18731;42.830;24.390;2023-02-15T04:53:24;34.95;;;19.05;;
32242;SDS011;18731;42.830;24.390;2023-02-15T04:55:50;33.25;;;17.35;;
32242;SDS011;18731;42.830;24.390;2023-02-15T04:58:16;39.47;;;21.30;;
32242;SDS011;18731;42.830;24.390;2023-02-15T05:00:41;45.97;;;23.73;;
32242;SDS011;18731;42.830;24.390;2023-02-15T05:03:07;47.08;;;26.40;;
32242;SDS011;18731;42.830;24.390;2023-02-15T05:05:32;44.03;;;25.02;;
32242;SDS011;18731;42.830;24.390;2023-02-15T05:07:58;36.05;;;19.25;;
32242;SDS011;18731;42.830;24.390;2023-02-15T05:10:23;38.47;;;21.13;;
32242;SDS011;18731;42.830;24.390;2023-02-15T05:12:49;38.95;;;22.13;;
32242;SDS011;18731;42.830;24.390;2023-02-15T05:15:14;35.83;;;20.23;;
32242;SDS011;18731;42.830;24.390;2023-02-15T05:17:40;32.08;;;19.08;;
32242;SDS011;18731;42.830;24.390;2023-02-15T05:20:06;34.40;;;19.23;;
32242;SDS011;18731;42.830;24.390;2023-02-15T05:22:32;33.30;;;19.33;;
32242;SDS011;18731;42.830;24.390;2023-02-15T05:24:57;33.72;;;18.75;;
32242;SDS011;18731;42.830;24.390;2023-02-15T05:27:41;36.33;;;20.13;;
32242;SDS011;18731;42.830;24.390;2023-02-15T05:30:25;37.90;;;20.10;;
32242;SDS011;18731;42.830;24.390;2023-02-15T05:32:51;38.88;;;20.60;;
32242;SDS011;18731;42.830;24.390;2023-02-15T05:35:18;36.17;;;19.63;;
32242;SDS011;18731;42.830;24.390;2023-02-15T05:37:43;31.13;;;18.23;;
32242;SDS011;18731;42.830;24.390;2023-02-15T05:40:09;37.00;;;18.98;;
32242;SDS011;18731;42.830;24.390;2023-02-15T05:42:35;29.75;;;18.25;;
32242;SDS011;18731;42.830;24.390;2023-02-15T05:45:01;38.58;;;19.30;;
32242;SDS011;18731;42.830;24.390;2023-02-15T05:47:29;38.75;;;20.20;;
32242;SDS011;18731;42.830;24.390;2023-02-15T05:49:54;37.75;;;20.05;;
32242;SDS011;18731;42.830;24.390;2023-02-15T05:52:20;35.97;;;19.83;;
32242;SDS011;18731;42.830;24.390;2023-02-15T05:54:46;32.22;;;16.67;;
32242;SDS011;18731;42.830;24.390;2023-02-15T05:57:12;32.28;;;16.75;;
32242;SDS011;18731;42.830;24.390;2023-02-15T05:59:38;32.50;;;17.67;;
32242;SDS011;18731;42.830;24.390;2023-02-15T06:02:03;35.22;;;18.25;;
32242;SDS011;18731;42.830;24.390;2023-02-15T06:04:29;33.45;;;17.90;;
32242;SDS011;18731;42.830;24.390;2023-02-15T06:06:54;34.60;;;18.48;;
32242;SDS011;18731;42.830;24.390;2023-02-15T06:09:20;36.72;;;18.83;;
32242;SDS011;18731;42.830;24.390;2023-02-15T06:11:45;49.88;;;24.40;;
32242;SDS011;18731;42.830;24.390;2023-02-15T06:14:11;61.65;;;27.85;;
32242;SDS011;18731;42.830;24.390;2023-02-15T06:16:37;60.00;;;26.90;;
32242;SDS011;18731;42.830;24.390;2023-02-15T06:19:02;57.28;;;25.95;;
32242;SDS011;18731;42.830;24.390;2023-02-15T06:21:29;69.22;;;27.95;;
32242;SDS011;18731;42.830;24.390;2023-02-15T06:23:55;84.97;;;32.60;;
32242;SDS011;18731;42.830;24.390;2023-02-15T06:26:21;78.70;;;30.02;;
32242;SDS011;18731;42.830;24.390;2023-02-15T06:28:46;52.97;;;23.60;;
32242;SDS011;18731;42.830;24.390;2023-02-15T06:31:12;52.78;;;23.45;;
32242;SDS011;18731;42.830;24.390;2023-02-15T06:33:38;59.83;;;26.85;;
32242;SDS011;18731;42.830;24.390;2023-02-15T06:36:03;52.10;;;26.88;;
32242;SDS011;18731;42.830;24.390;2023-02-15T06:38:29;50.35;;;24.15;;
32242;SDS011;18731;42.830;24.390;2023-02-15T06:40:55;56.40;;;27.13;;
32242;SDS011;18731;42.830;24.390;2023-02-15T06:43:21;62.75;;;29.50;;
32242;SDS011;18731;42.830;24.390;2023-02-15T06:45:46;66.97;;;31.85;;
32242;SDS011;18731;42.830;24.390;2023-02-15T06:48:12;75.07;;;34.85;;
32242;SDS011;18731;42.830;24.390;2023-02-15T06:50:37;72.95;;;34.33;;
32242;SDS011;18731;42.830;24.390;2023-02-15T06:53:03;68.55;;;32.75;;
32242;SDS011;18731;42.830;24.390;2023-02-15T06:55:29;70.57;;;31.75;;
32242;SDS011;18731;42.830;24.390;2023-02-15T06:57:54;71.18;;;32.88;;
32242;SDS011;18731;42.830;24.390;2023-02-15T07:00:20;61.72;;;29.60;;
32242;SDS011;18731;42.830;24.390;2023-02-15T07:02:52;61.40;;;29.77;;
32242;SDS011;18731;42.830;24.390;2023-02-15T07:05:20;61.55;;;30.90;;
32242;SDS011;18731;42.830;24.390;2023-02-15T07:07:47;61.17;;;28.25;;
32242;SDS011;18731;42.830;24.390;2023-02-15T07:10:12;60.65;;;29.42;;
32242;SDS011;18731;42.830;24.390;2023-02-15T07:12:38;46.92;;;24.25;;
32242;SDS011;18731;42.830;24.390;2023-02-15T07:15:07;45.80;;;22.50;;
32242;SDS011;18731;42.830;24.390;2023-02-15T07:17:34;37.38;;;19.15;;
32242;SDS011;18731;42.830;24.390;2023-02-15T07:20:00;47.53;;;23.25;;
32242;SDS011;18731;42.830;24.390;2023-02-15T07:22:27;42.75;;;21.40;;
32242;SDS011;18731;42.830;24.390;2023-02-15T07:24:53;41.85;;;22.42;;
32242;SDS011;18731;42.830;24.390;2023-02-15T07:27:20;41.60;;;22.38;;
32242;SDS011;18731;42.830;24.390;2023-02-15T07:29:46;47.05;;;23.05;;
32242;SDS011;18731;42.830;24.390;2023-02-15T07:32:11;44.70;;;21.30;;
32242;SDS011;18731;42.830;24.390;2023-02-15T07:34:37;40.28;;;21.77;;
32242;SDS011;18731;42.830;24.390;2023-02-15T07:37:03;38.63;;;20.58;;
32242;SDS011;18731;42.830;24.390;2023-02-15T07:39:29;37.40;;;20.27;;
32242;SDS011;18731;42.830;24.390;2023-02-15T07:41:55;39.42;;;20.95;;
32242;SDS011;18731;42.830;24.390;2023-02-15T07:44:20;43.63;;;22.48;;
32242;SDS011;18731;42.830;24.390;2023-02-15T07:46:46;41.60;;;20.70;;
32242;SDS011;18731;42.830;24.390;2023-02-15T07:49:11;31.98;;;17.98;;
32242;SDS011;18731;42.830;24.390;2023-02-15T07:51:37;32.53;;;18.13;;
32242;SDS011;18731;42.830;24.390;2023-02-15T07:54:03;31.95;;;17.63;;
32242;SDS011;18731;42.830;24.390;2023-02-15T07:56:28;28.92;;;15.82;;
32242;SDS011;18731;42.830;24.390;2023-02-15T07:58:54;29.40;;;16.30;;
32242;SDS011;18731;42.830;24.390;2023-02-15T08:01:30;33.13;;;16.52;;
32242;SDS011;18731;42.830;24.390;2023-02-15T08:06:25;29.70;;;15.25;;
32242;SDS011;18731;42.830;24.390;2023-02-15T08:08:52;26.02;;;14.60;;
32242;SDS011;18731;42.830;24.390;2023-02-15T08:16:28;23.30;;;13.32;;
32242;SDS011;18731;42.830;24.390;2023-02-15T08:18:54;23.30;;;13.02;;
32242;SDS011;18731;42.830;24.390;2023-02-15T08:21:21;25.98;;;14.32;;
32242;SDS011;18731;42.830;24.390;2023-02-15T08:23:47;26.42;;;13.63;;
32242;SDS011;18731;42.830;24.390;2023-02-15T08:26:13;23.23;;;12.70;;
32242;SDS011;18731;42.830;24.390;2023-02-15T08:28:40;23.42;;;13.32;;
32242;SDS011;18731;42.830;24.390;2023-02-15T08:31:07;26.10;;;14.07;;
32242;SDS011;18731;42.830;24.390;2023-02-15T08:33:37;28.75;;;14.85;;
32242;SDS011;18731;42.830;24.390;2023-02-15T08:36:04;29.33;;;14.20;;
32242;SDS011;18731;42.830;24.390;2023-02-15T08:38:33;25.42;;;13.65;;
32242;SDS011;18731;42.830;24.390;2023-02-15T08:41:09;23.85;;;13.13;;
32242;SDS011;18731;42.830;24.390;2023-02-15T08:43:34;24.48;;;13.68;;
32242;SDS011;18731;42.830;24.390;2023-02-15T08:46:00;25.40;;;14.07;;
32242;SDS011;18731;42.830;24.390;2023-02-15T08:48:25;24.15;;;13.70;;
32242;SDS011;18731;42.830;24.390;2023-02-15T08:50:51;23.20;;;12.32;;
32242;SDS011;18731;42.830;24.390;2023-02-15T08:53:16;24.55;;;13.43;;
32242;SDS011;18731;42.830;24.390;2023-02-15T08:55:47;20.08;;;11.88;;
32242;SDS011;18731;42.830;24.390;2023-02-15T08:58:20;28.80;;;14.43;;
32242;SDS011;18731;42.830;24.390;2023-02-15T09:00:45;21.65;;;11.95;;
32242;SDS011;18731;42.830;24.390;2023-02-15T09:03:11;21.73;;;12.20;;
32242;SDS011;18731;42.830;24.390;2023-02-15T09:05:36;21.95;;;13.05;;
32242;SDS011;18731;42.830;24.390;2023-02-15T09:08:02;26.85;;;13.50;;
32242;SDS011;18731;42.830;24.390;2023-02-15T09:10:28;20.67;;;12.15;;
32242;SDS011;18731;42.830;24.390;2023-02-15T09:12:53;22.75;;;12.75;;
32242;SDS011;18731;42.830;24.390;2023-02-15T09:15:19;22.30;;;12.85;;
32242;SDS011;18731;42.830;24.390;2023-02-15T09:17:44;22.10;;;12.55;;
32242;SDS011;18731;42.830;24.390;2023-02-15T09:20:10;22.35;;;11.40;;
32242;SDS011;18731;42.830;24.390;2023-02-15T09:22:36;22.98;;;12.18;;
32242;SDS011;18731;42.830;24.390;2023-02-15T09:25:01;22.65;;;12.70;;
32242;SDS011;18731;42.830;24.390;2023-02-15T09:27:27;19.63;;;11.40;;
32242;SDS011;18731;42.830;24.390;2023-02-15T09:29:52;18.90;;;11.07;;
32242;SDS011;18731;42.830;24.390;2023-02-15T09:32:18;16.60;;;9.65;;
32242;SDS011;18731;42.830;24.390;2023-02-15T09:34:44;18.77;;;10.48;;
32242;SDS011;18731;42.830;24.390;2023-02-15T09:37:09;17.42;;;10.95;;
32242;SDS011;18731;42.830;24.390;2023-02-15T09:39:35;18.25;;;10.75;;
32242;SDS011;18731;42.830;24.390;2023-02-15T09:47:25;17.02;;;10.93;;
32242;SDS011;18731;42.830;24.390;2023-02-15T09:52:55;14.55;;;10.00;;
32242;SDS011;18731;42.830;24.390;2023-02-15T10:03:12;16.33;;;10.05;;
32242;SDS011;18731;42.830;24.390;2023-02-15T10:09:09;15.57;;;9.48;;
32242;SDS011;18731;42.830;24.390;2023-02-15T10:11:43;14.57;;;9.32;;
32242;SDS011;18731;42.830;24.390;2023-02-15T10:22:01;15.13;;;9.68;;
32242;SDS011;18731;42.830;24.390;2023-02-15T10:27:32;14.85;;;9.15;;
32242;SDS011;18731;42.830;24.390;2023-02-15T10:30:08;17.15;;;10.43;;
32242;SDS011;18731;42.830;24.390;2023-02-15T10:35:35;13.95;;;9.38;;
32242;SDS011;18731;42.830;24.390;2023-02-15T10:40:52;14.88;;;9.60;;
32242;SDS011;18731;42.830;24.390;2023-02-15T10:52:00;13.82;;;9.13;;
32242;SDS011;18731;42.830;24.390;2023-02-15T11:05:45;14.10;;;8.77;;
32242;SDS011;18731;42.830;24.390;2023-02-15T11:08:32;14.10;;;8.55;;
32242;SDS011;18731;42.830;24.390;2023-02-15T11:11:02;11.52;;;7.63;;
32242;SDS011;18731;42.830;24.390;2023-02-15T11:13:36;13.18;;;8.60;;
32242;SDS011;18731;42.830;24.390;2023-02-15T11:16:17;13.60;;;8.48;;
32242;SDS011;18731;42.830;24.390;2023-02-15T11:18:58;15.60;;;8.88;;
32242;SDS011;18731;42.830;24.390;2023-02-15T11:21:46;13.52;;;8.20;;
32242;SDS011;18731;42.830;24.390;2023-02-15T11:24:19;13.48;;;8.68;;
32242;SDS011;18731;42.830;24.390;2023-02-15T11:26:50;12.23;;;7.65;;
32242;SDS011;18731;42.830;24.390;2023-02-15T11:29:23;12.75;;;8.38;;
32242;SDS011;18731;42.830;24.390;2023-02-15T11:31:53;12.57;;;8.10;;
32242;SDS011;18731;42.830;24.390;2023-02-15T11:36:50;11.88;;;7.68;;
32242;SDS011;18731;42.830;24.390;2023-02-15T11:39:19;12.02;;;7.93;;
32242;SDS011;18731;42.830;24.390;2023-02-15T11:41:48;12.20;;;8.10;;
32242;SDS011;18731;42.830;24.390;2023-02-15T11:44:21;11.95;;;7.80;;
32242;SDS011;18731;42.830;24.390;2023-02-15T11:46:51;11.23;;;7.32;;
32242;SDS011;18731;42.830;24.390;2023-02-15T11:49:33;12.32;;;6.97;;
32242;SDS011;18731;42.830;24.390;2023-02-15T11:52:05;11.73;;;7.20;;
32242;SDS011;18731;42.830;24.390;2023-02-15T11:54:36;10.35;;;7.07;;
32242;SDS011;18731;42.830;24.390;2023-02-15T11:57:17;11.38;;;7.65;;
32242;SDS011;18731;42.830;24.390;2023-02-15T12:02:33;12.93;;;7.03;;
32242;SDS011;18731;42.830;24.390;2023-02-15T12:05:10;10.45;;;7.00;;
32242;SDS011;18731;42.830;24.390;2023-02-15T12:07:42;12.70;;;7.63;;
32242;SDS011;18731;42.830;24.390;2023-02-15T12:15:43;11.65;;;7.18;;
32242;SDS011;18731;42.830;24.390;2023-02-15T12:21:07;8.82;;;6.55;;
32242;SDS011;18731;42.830;24.390;2023-02-15T12:23:41;10.32;;;6.78;;
32242;SDS011;18731;42.830;24.390;2023-02-15T12:26:07;10.60;;;7.65;;
32242;SDS011;18731;42.830;24.390;2023-02-15T12:28:37;9.88;;;7.18;;
32242;SDS011;18731;42.830;24.390;2023-02-15T12:31:07;10.90;;;7.03;;
32242;SDS011;18731;42.830;24.390;2023-02-15T12:33:46;9.68;;;6.85;;
32242;SDS011;18731;42.830;24.390;2023-02-15T12:36:15;11.60;;;6.80;;
32242;SDS011;18731;42.830;24.390;2023-02-15T12:39:00;12.45;;;6.95;;
32242;SDS011;18731;42.830;24.390;2023-02-15T12:41:46;12.48;;;6.97;;
32242;SDS011;18731;42.830;24.390;2023-02-15T12:44:40;10.90;;;6.25;;
32242;SDS011;18731;42.830;24.390;2023-02-15T12:47:22;10.98;;;6.93;;
32242;SDS011;18731;42.830;24.390;2023-02-15T12:52:48;11.35;;;6.82;;
32242;SDS011;18731;42.830;24.390;2023-02-15T12:57:46;8.50;;;5.75;;
32242;SDS011;18731;42.830;24.390;2023-02-15T13:10:42;9.30;;;6.10;;
32242;SDS011;18731;42.830;24.390;2023-02-15T13:13:24;11.20;;;5.80;;
32242;SDS011;18731;42.830;24.390;2023-02-15T13:15:52;8.88;;;6.65;;
32242;SDS011;18731;42.830;24.390;2023-02-15T13:21:00;8.43;;;5.88;;
32242;SDS011;18731;42.830;24.390;2023-02-15T13:23:36;9.32;;;6.07;;
32242;SDS011;18731;42.830;24.390;2023-02-15T13:26:04;7.93;;;5.93;;
32242;SDS011;18731;42.830;24.390;2023-02-15T13:28:39;9.00;;;6.07;;
32242;SDS011;18731;42.830;24.390;2023-02-15T13:31:13;11.15;;;6.65;;
32242;SDS011;18731;42.830;24.390;2023-02-15T13:33:44;9.88;;;6.45;;
32242;SDS011;18731;42.830;24.390;2023-02-15T13:36:17;9.25;;;6.60;;
32242;SDS011;18731;42.830;24.390;2023-02-15T13:52:29;11.65;;;6.72;;
32242;SDS011;18731;42.830;24.390;2023-02-15T13:57:44;9.50;;;6.65;;
32242;SDS011;18731;42.830;24.390;2023-02-15T14:01:19;11.77;;;7.22;;
32242;SDS011;18731;42.830;24.390;2023-02-15T14:11:44;10.63;;;6.75;;
32242;SDS011;18731;42.830;24.390;2023-02-15T14:14:22;11.55;;;6.75;;
32242;SDS011;18731;42.830;24.390;2023-02-15T14:17:23;10.18;;;6.60;;
32242;SDS011;18731;42.830;24.390;2023-02-15T14:22:35;14.98;;;7.82;;
32242;SDS011;18731;42.830;24.390;2023-02-15T14:25:17;12.00;;;6.95;;
32242;SDS011;18731;42.830;24.390;2023-02-15T14:30:36;14.00;;;7.35;;
32242;SDS011;18731;42.830;24.390;2023-02-15T14:33:08;8.75;;;6.13;;
32242;SDS011;18731;42.830;24.390;2023-02-15T14:35:50;10.00;;;6.40;;
32242;SDS011;18731;42.830;24.390;2023-02-15T14:41:09;9.98;;;6.60;;
32242;SDS011;18731;42.830;24.390;2023-02-15T14:48:53;12.25;;;7.35;;
32242;SDS011;18731;42.830;24.390;2023-02-15T14:56:32;12.75;;;7.85;;
32242;SDS011;18731;42.830;24.390;2023-02-15T14:58:59;37.65;;;24.95;;
32242;SDS011;18731;42.830;24.390;2023-02-15T15:01:38;20.27;;;12.05;;
32242;SDS011;18731;42.830;24.390;2023-02-15T15:04:07;12.77;;;6.95;;
32242;SDS011;18731;42.830;24.390;2023-02-15T15:06:37;13.18;;;7.93;;
32242;SDS011;18731;42.830;24.390;2023-02-15T15:09:10;14.10;;;7.50;;
32242;SDS011;18731;42.830;24.390;2023-02-15T15:11:44;19.70;;;11.48;;
32242;SDS011;18731;42.830;24.390;2023-02-15T15:16:59;22.60;;;11.45;;
32242;SDS011;18731;42.830;24.390;2023-02-15T15:22:19;14.13;;;8.57;;
32242;SDS011;18731;42.830;24.390;2023-02-15T15:24:51;48.22;;;26.60;;
32242;SDS011;18731;42.830;24.390;2023-02-15T15:30:49;12.40;;;7.90;;
32242;SDS011;18731;42.830;24.390;2023-02-15T15:38:24;45.83;;;26.02;;
32242;SDS011;18731;42.830;24.390;2023-02-15T15:41:24;20.88;;;12.15;;
32242;SDS011;18731;42.830;24.390;2023-02-15T15:44:31;28.08;;;15.02;;
32242;SDS011;18731;42.830;24.390;2023-02-15T15:47:52;21.77;;;11.85;;
32242;SDS011;18731;42.830;24.390;2023-02-15T15:50:13;41.53;;;20.65;;
32242;SDS011;18731;42.830;24.390;2023-02-15T15:52:43;31.35;;;15.13;;
32242;SDS011;18731;42.830;24.390;2023-02-15T15:55:25;55.90;;;25.33;;
32242;SDS011;18731;42.830;24.390;2023-02-15T15:57:53;24.40;;;12.45;;
32242;SDS011;18731;42.830;24.390;2023-02-15T16:00:45;22.60;;;11.80;;
32242;SDS011;18731;42.830;24.390;2023-02-15T16:03:21;79.50;;;33.67;;
32242;SDS011;18731;42.830;24.390;2023-02-15T16:05:48;62.50;;;27.27;;
32242;SDS011;18731;42.830;24.390;2023-02-15T16:08:35;107.85;;;43.47;;
32242;SDS011;18731;42.830;24.390;2023-02-15T16:11:24;42.17;;;17.75;;
32242;SDS011;18731;42.830;24.390;2023-02-15T16:13:50;80.07;;;32.85;;
32242;SDS011;18731;42.830;24.390;2023-02-15T16:16:26;89.57;;;39.65;;
32242;SDS011;18731;42.830;24.390;2023-02-15T16:18:55;37.58;;;17.98;;
32242;SDS011;18731;42.830;24.390;2023-02-15T16:21:28;36.33;;;15.45;;
32242;SDS011;18731;42.830;24.390;2023-02-15T16:26:56;53.30;;;24.65;;
32242;SDS011;18731;42.830;24.390;2023-02-15T16:29:38;156.35;;;70.45;;
32242;SDS011;18731;42.830;24.390;2023-02-15T16:32:05;151.60;;;67.78;;
32242;SDS011;18731;42.830;24.390;2023-02-15T16:34:58;124.15;;;51.15;;
32242;SDS011;18731;42.830;24.390;2023-02-15T16:37:25;92.90;;;42.30;;
32242;SDS011;18731;42.830;24.390;2023-02-15T16:39:56;72.07;;;33.78;;
32242;SDS011;18731;42.830;24.390;2023-02-15T16:42:22;44.20;;;23.70;;
32242;SDS011;18731;42.830;24.390;2023-02-15T16:44:50;43.88;;;22.15;;
32242;SDS011;18731;42.830;24.390;2023-02-15T16:47:21;36.15;;;19.50;;
32242;SDS011;18731;42.830;24.390;2023-02-15T16:49:54;28.52;;;15.38;;
32242;SDS011;18731;42.830;24.390;2023-02-15T16:52:23;61.88;;;18.75;;
32242;SDS011;18731;42.830;24.390;2023-02-15T16:54:53;83.43;;;40.17;;
32242;SDS011;18731;42.830;24.390;2023-02-15T16:57:25;51.58;;;26.95;;
32242;SDS011;18731;42.830;24.390;2023-02-15T16:59:57;72.68;;;35.40;;
32242;SDS011;18731;42.830;24.390;2023-02-15T17:02:29;21.75;;;12.10;;
32242;SDS011;18731;42.830;24.390;2023-02-15T17:05:15;31.92;;;17.35;;
32242;SDS011;18731;42.830;24.390;2023-02-15T17:07:49;49.67;;;26.95;;
32242;SDS011;18731;42.830;24.390;2023-02-15T17:13:16;52.20;;;26.90;;
32242;SDS011;18731;42.830;24.390;2023-02-15T17:18:23;49.13;;;24.60;;
32242;SDS011;18731;42.830;24.390;2023-02-15T17:20:51;67.90;;;30.45;;
32242;SDS011;18731;42.830;24.390;2023-02-15T17:23:26;53.95;;;24.90;;
32242;SDS011;18731;42.830;24.390;2023-02-15T17:25:57;25.10;;;13.18;;
32242;SDS011;18731;42.830;24.390;2023-02-15T17:28:29;48.55;;;23.63;;
32242;SDS011;18731;42.830;24.390;2023-02-15T17:30:56;80.18;;;35.25;;
32242;SDS011;18731;42.830;24.390;2023-02-15T17:36:08;51.78;;;25.60;;
32242;SDS011;18731;42.830;24.390;2023-02-15T17:38:41;66.53;;;30.92;;
32242;SDS011;18731;42.830;24.390;2023-02-15T17:41:31;67.20;;;30.27;;
32242;SDS011;18731;42.830;24.390;2023-02-15T17:44:00;72.35;;;34.72;;
32242;SDS011;18731;42.830;24.390;2023-02-15T17:46:27;59.88;;;27.90;;
32242;SDS011;18731;42.830;24.390;2023-02-15T17:48:59;107.22;;;39.88;;
32242;SDS011;18731;42.830;24.390;2023-02-15T17:51:26;35.90;;;19.20;;
32242;SDS011;18731;42.830;24.390;2023-02-15T17:53:52;45.53;;;21.73;;
32242;SDS011;18731;42.830;24.390;2023-02-15T17:56:37;34.92;;;17.60;;
32242;SDS011;18731;42.830;24.390;2023-02-15T17:59:03;44.15;;;23.27;;
32242;SDS011;18731;42.830;24.390;2023-02-15T18:01:34;63.88;;;30.60;;
32242;SDS011;18731;42.830;24.390;2023-02-15T18:04:21;48.65;;;24.42;;
32242;SDS011;18731;42.830;24.390;2023-02-15T18:07:07;73.90;;;34.42;;
32242;SDS011;18731;42.830;24.390;2023-02-15T18:09:54;70.75;;;31.50;;
32242;SDS011;18731;42.830;24.390;2023-02-15T18:12:38;174.70;;;64.35;;
32242;SDS011;18731;42.830;24.390;2023-02-15T18:15:05;140.27;;;51.92;;
32242;SDS011;18731;42.830;24.390;2023-02-15T18:17:32;130.32;;;49.13;;
32242;SDS011;18731;42.830;24.390;2023-02-15T18:20:01;90.25;;;41.00;;
32242;SDS011;18731;42.830;24.390;2023-02-15T18:22:29;97.07;;;49.42;;
32242;SDS011;18731;42.830;24.390;2023-02-15T18:24:56;40.97;;;21.40;;
32242;SDS011;18731;42.830;24.390;2023-02-15T18:27:21;23.88;;;13.50;;
32242;SDS011;18731;42.830;24.390;2023-02-15T18:29:47;47.63;;;24.77;;
32242;SDS011;18731;42.830;24.390;2023-02-15T18:32:14;31.65;;;15.43;;
32242;SDS011;18731;42.830;24.390;2023-02-15T18:34:42;23.05;;;11.18;;
32242;SDS011;18731;42.830;24.390;2023-02-15T18:37:16;35.38;;;18.35;;
32242;SDS011;18731;42.830;24.390;2023-02-15T18:39:47;49.33;;;27.50;;
32242;SDS011;18731;42.830;24.390;2023-02-15T18:42:20;31.77;;;17.60;;
32242;SDS011;18731;42.830;24.390;2023-02-15T18:44:54;40.35;;;19.58;;
32242;SDS011;18731;42.830;24.390;2023-02-15T18:47:22;25.30;;;13.55;;
32242;SDS011;18731;42.830;24.390;2023-02-15T18:49:47;25.98;;;14.57;;
32242;SDS011;18731;42.830;24.390;2023-02-15T18:52:16;28.33;;;13.68;;
32242;SDS011;18731;42.830;24.390;2023-02-15T18:54:48;25.85;;;12.93;;
32242;SDS011;18731;42.830;24.390;2023-02-15T18:57:17;49.08;;;22.65;;
32242;SDS011;18731;42.830;24.390;2023-02-15T18:59:43;45.08;;;22.13;;
32242;SDS011;18731;42.830;24.390;2023-02-15T19:02:12;36.25;;;17.88;;
32242;SDS011;18731;42.830;24.390;2023-02-15T19:04:40;21.80;;;10.80;;
32242;SDS011;18731;42.830;24.390;2023-02-15T19:07:07;43.22;;;20.27;;
32242;SDS011;18731;42.830;24.390;2023-02-15T19:09:57;153.63;;;53.08;;
32242;SDS011;18731;42.830;24.390;2023-02-15T19:12:26;65.22;;;27.52;;
32242;SDS011;18731;42.830;24.390;2023-02-15T19:14:52;69.38;;;30.65;;
32242;SDS011;18731;42.830;24.390;2023-02-15T19:17:20;34.58;;;17.27;;
32242;SDS011;18731;42.830;24.390;2023-02-15T19:19:48;54.92;;;23.80;;
32242;SDS011;18731;42.830;24.390;2023-02-15T19:22:19;32.33;;;17.13;;
32242;SDS011;18731;42.830;24.390;2023-02-15T19:24:49;54.92;;;24.85;;
32242;SDS011;18731;42.830;24.390;2023-02-15T19:27:21;61.60;;;27.08;;
32242;SDS011;18731;42.830;24.390;2023-02-15T19:29:51;46.83;;;23.73;;
32242;SDS011;18731;42.830;24.390;2023-02-15T19:32:18;53.72;;;25.98;;
32242;SDS011;18731;42.830;24.390;2023-02-15T19:34:44;37.42;;;18.90;;
32242;SDS011;18731;42.830;24.390;2023-02-15T19:37:23;28.80;;;14.77;;
32242;SDS011;18731;42.830;24.390;2023-02-15T19:39:59;33.75;;;14.90;;
32242;SDS011;18731;42.830;24.390;2023-02-15T19:42:27;56.13;;;26.40;;
32242;SDS011;18731;42.830;24.390;2023-02-15T19:44:53;54.58;;;26.20;;
32242;SDS011;18731;42.830;24.390;2023-02-15T19:47:19;48.42;;;23.05;;
32242;SDS011;18731;42.830;24.390;2023-02-15T19:49:46;43.55;;;23.60;;
32242;SDS011;18731;42.830;24.390;2023-02-15T19:52:16;61.28;;;30.60;;
32242;SDS011;18731;42.830;24.390;2023-02-15T19:54:45;61.83;;;30.73;;
32242;SDS011;18731;42.830;24.390;2023-02-15T19:57:12;59.08;;;27.20;;
32242;SDS011;18731;42.830;24.390;2023-02-15T19:59:38;53.13;;;27.48;;
32242;SDS011;18731;42.830;24.390;2023-02-15T20:02:05;50.45;;;24.35;;
32242;SDS011;18731;42.830;24.390;2023-02-15T20:04:31;49.63;;;24.63;;
32242;SDS011;18731;42.830;24.390;2023-02-15T20:06:58;35.90;;;18.40;;
32242;SDS011;18731;42.830;24.390;2023-02-15T20:09:29;29.02;;;15.48;;
32242;SDS011;18731;42.830;24.390;2023-02-15T20:11:58;31.15;;;14.93;;
32242;SDS011;18731;42.830;24.390;2023-02-15T20:14:24;28.15;;;14.10;;
32242;SDS011;18731;42.830;24.390;2023-02-15T20:16:49;36.33;;;18.67;;
32242;SDS011;18731;42.830;24.390;2023-02-15T20:19:15;45.58;;;23.70;;
32242;SDS011;18731;42.830;24.390;2023-02-15T20:21:42;31.95;;;14.63;;
32242;SDS011;18731;42.830;24.390;2023-02-15T20:24:12;35.53;;;17.30;;
32242;SDS011;18731;42.830;24.390;2023-02-15T20:26:40;51.80;;;25.98;;
32242;SDS011;18731;42.830;24.390;2023-02-15T20:29:10;58.97;;;29.27;;
32242;SDS011;18731;42.830;24.390;2023-02-15T20:31:38;52.95;;;24.65;;
32242;SDS011;18731;42.830;24.390;2023-02-15T20:34:04;83.78;;;34.25;;
32242;SDS011;18731;42.830;24.390;2023-02-15T20:36:29;76.20;;;29.88;;
32242;SDS011;18731;42.830;24.390;2023-02-15T20:38:56;77.60;;;30.88;;
32242;SDS011;18731;42.830;24.390;2023-02-15T20:41:25;54.92;;;22.48;;
32242;SDS011;18731;42.830;24.390;2023-02-15T20:46:39;53.10;;;22.95;;
32242;SDS011;18731;42.830;24.390;2023-02-15T20:49:05;65.50;;;27.48;;
32242;SDS011;18731;42.830;24.390;2023-02-15T20:51:30;43.55;;;20.15;;
32242;SDS011;18731;42.830;24.390;2023-02-15T20:53:56;63.45;;;26.00;;
32242;SDS011;18731;42.830;24.390;2023-02-15T20:56:22;46.55;;;19.33;;
32242;SDS011;18731;42.830;24.390;2023-02-15T20:58:49;54.97;;;22.30;;
32242;SDS011;18731;42.830;24.390;2023-02-15T21:01:15;42.92;;;18.05;;
32242;SDS011;18731;42.830;24.390;2023-02-15T21:03:44;40.65;;;17.88;;
32242;SDS011;18731;42.830;24.390;2023-02-15T21:06:14;54.85;;;24.90;;
32242;SDS011;18731;42.830;24.390;2023-02-15T21:08:41;62.63;;;28.13;;
32242;SDS011;18731;42.830;24.390;2023-02-15T21:11:20;56.97;;;25.42;;
32242;SDS011;18731;42.830;24.390;2023-02-15T21:13:47;41.80;;;19.38;;
32242;SDS011;18731;42.830;24.390;2023-02-15T21:16:15;34.15;;;16.10;;
32242;SDS011;18731;42.830;24.390;2023-02-15T21:18:41;29.27;;;13.75;;